sensor_id;sensor_type;location;lat;lon;timestamp;P1;durP1;ratioP1;P2;durP2;ratioP2
840;SDS011;406;48.566;13.450;2023-01-25T00:02:09;11.07;;;7.30;;
840;SDS011;406;48.566;13.450;2023-01-25T00:04:36;11.85;;;7.43;;
840;SDS011;406;48.566;13.450;2023-01-25T00:07:02;10.45;;;6.35;;
840;SDS011;406;48.566;13.450;2023-01-25T00:09:29;11.17;;;7.93;;
840;SDS011;406;48.566;13.450;2023-01-25T00:11:55;10.80;;;7.47;;
840;SDS011;406;48.566;13.450;2023-01-25T00:14:23;9.25;;;7.07;;
840;SDS011;406;48.566;13.450;2023-01-25T00:16:50;10.45;;;6.55;;
840;SDS011;406;48.566;13.450;2023-01-25T00:19:17;11.68;;;7.40;;
840;SDS011;406;48.566;13.450;2023-01-25T00:21:44;10.75;;;6.75;;
840;SDS011;406;48.566;13.450;2023-01-25T00:24:10;8.95;;;6.90;;
840;SDS011;406;48.566;13.450;2023-01-25T00:26:37;11.68;;;7.90;;
840;SDS011;406;48.566;13.450;2023-01-25T00:29:08;10.48;;;7.57;;
840;SDS011;406;48.566;13.450;2023-01-25T00:39:55;12.70;;;8.02;;
840;SDS011;406;48.566;13.450;2023-01-25T00:42:22;9.63;;;7.22;;
840;SDS011;406;48.566;13.450;2023-01-25T00:44:49;10.98;;;8.35;;
840;SDS011;406;48.566;13.450;2023-01-25T00:47:15;10.88;;;7.25;;
840;SDS011;406;48.566;13.450;2023-01-25T00:49:42;9.88;;;6.75;;
840;SDS011;406;48.566;13.450;2023-01-25T00:52:09;10.63;;;8.27;;
840;SDS011;406;48.566;13.450;2023-01-25T00:54:36;12.82;;;7.72;;
840;SDS011;406;48.566;13.450;2023-01-25T00:57:03;11.52;;;7.82;;
840;SDS011;406;48.566;13.450;2023-01-25T00:59:30;11.70;;;7.20;;
840;SDS011;406;48.566;13.450;2023-01-25T01:01:56;10.25;;;7.05;;
840;SDS011;406;48.566;13.450;2023-01-25T01:04:23;13.57;;;8.60;;
840;SDS011;406;48.566;13.450;2023-01-25T01:06:51;10.27;;;6.95;;
840;SDS011;406;48.566;13.450;2023-01-25T01:09:19;11.68;;;7.55;;
840;SDS011;406;48.566;13.450;2023-01-25T01:11:46;12.30;;;8.60;;
840;SDS011;406;48.566;13.450;2023-01-25T01:14:13;11.37;;;7.53;;
840;SDS011;406;48.566;13.450;2023-01-25T01:16:40;14.43;;;7.68;;
840;SDS011;406;48.566;13.450;2023-01-25T01:19:09;12.43;;;8.20;;
840;SDS011;406;48.566;13.450;2023-01-25T01:21:36;11.90;;;7.07;;
840;SDS011;406;48.566;13.450;2023-01-25T01:24:02;14.20;;;9.30;;
840;SDS011;406;48.566;13.450;2023-01-25T01:26:29;11.55;;;7.80;;
840;SDS011;406;48.566;13.450;2023-01-25T01:28:56;13.00;;;8.23;;
840;SDS011;406;48.566;13.450;2023-01-25T01:31:23;14.10;;;8.65;;
840;SDS011;406;48.566;13.450;2023-01-25T01:34:05;12.02;;;7.70;;
840;SDS011;406;48.566;13.450;2023-01-25T01:36:31;14.75;;;9.95;;
840;SDS011;406;48.566;13.450;2023-01-25T01:39:00;14.20;;;8.90;;
840;SDS011;406;48.566;13.450;2023-01-25T01:41:26;11.38;;;7.85;;
840;SDS011;406;48.566;13.450;2023-01-25T01:43:53;14.70;;;8.80;;
840;SDS011;406;48.566;13.450;2023-01-25T01:46:21;11.52;;;8.20;;
840;SDS011;406;48.566;13.450;2023-01-25T01:49:00;14.57;;;8.98;;
840;SDS011;406;48.566;13.450;2023-01-25T01:51:44;13.70;;;8.68;;
840;SDS011;406;48.566;13.450;2023-01-25T01:54:24;11.90;;;6.70;;
840;SDS011;406;48.566;13.450;2023-01-25T01:56:59;11.27;;;7.70;;
840;SDS011;406;48.566;13.450;2023-01-25T01:59:30;12.63;;;9.00;;
840;SDS011;406;48.566;13.450;2023-01-25T02:02:00;10.18;;;6.50;;
840;SDS011;406;48.566;13.450;2023-01-25T02:04:27;12.82;;;8.50;;
840;SDS011;406;48.566;13.450;2023-01-25T02:07:38;11.43;;;7.03;;
840;SDS011;406;48.566;13.450;2023-01-25T02:09:49;11.70;;;7.25;;
840;SDS011;406;48.566;13.450;2023-01-25T02:12:17;11.23;;;7.35;;
840;SDS011;406;48.566;13.450;2023-01-25T02:14:46;10.93;;;6.88;;
840;SDS011;406;48.566;13.450;2023-01-25T02:17:30;11.73;;;7.60;;
840;SDS011;406;48.566;13.450;2023-01-25T02:22:44;13.20;;;7.82;;
840;SDS011;406;48.566;13.450;2023-01-25T02:25:16;10.57;;;6.97;;
840;SDS011;406;48.566;13.450;2023-01-25T02:27:52;10.60;;;7.32;;
840;SDS011;406;48.566;13.450;2023-01-25T02:30:21;12.52;;;8.07;;
840;SDS011;406;48.566;13.450;2023-01-25T02:32:49;11.32;;;6.30;;
840;SDS011;406;48.566;13.450;2023-01-25T02:35:20;10.35;;;7.05;;
840;SDS011;406;48.566;13.450;2023-01-25T02:38:00;8.60;;;5.85;;
840;SDS011;406;48.566;13.450;2023-01-25T02:40:28;9.13;;;6.65;;
840;SDS011;406;48.566;13.450;2023-01-25T02:42:56;12.65;;;7.82;;
840;SDS011;406;48.566;13.450;2023-01-25T02:45:24;10.55;;;7.40;;
840;SDS011;406;48.566;13.450;2023-01-25T02:47:53;12.05;;;7.53;;
840;SDS011;406;48.566;13.450;2023-01-25T02:50:19;10.20;;;6.05;;
840;SDS011;406;48.566;13.450;2023-01-25T02:52:46;12.25;;;8.00;;
840;SDS011;406;48.566;13.450;2023-01-25T02:55:12;8.90;;;5.88;;
840;SDS011;406;48.566;13.450;2023-01-25T02:57:41;10.55;;;5.90;;
840;SDS011;406;48.566;13.450;2023-01-25T03:00:08;10.07;;;6.82;;
840;SDS011;406;48.566;13.450;2023-01-25T03:02:35;11.65;;;6.80;;
840;SDS011;406;48.566;13.450;2023-01-25T03:05:02;14.07;;;7.18;;
840;SDS011;406;48.566;13.450;2023-01-25T03:07:29;9.65;;;6.47;;
840;SDS011;406;48.566;13.450;2023-01-25T03:09:56;12.15;;;7.70;;
840;SDS011;406;48.566;13.450;2023-01-25T03:12:23;9.95;;;7.13;;
840;SDS011;406;48.566;13.450;2023-01-25T03:14:50;11.38;;;7.40;;
840;SDS011;406;48.566;13.450;2023-01-25T03:17:17;10.70;;;7.93;;
840;SDS011;406;48.566;13.450;2023-01-25T03:19:44;9.63;;;7.00;;
840;SDS011;406;48.566;13.450;2023-01-25T03:22:11;11.87;;;7.70;;
840;SDS011;406;48.566;13.450;2023-01-25T03:24:37;12.60;;;6.95;;
840;SDS011;406;48.566;13.450;2023-01-25T03:27:05;11.77;;;6.95;;
840;SDS011;406;48.566;13.450;2023-01-25T03:29:48;11.60;;;6.68;;
840;SDS011;406;48.566;13.450;2023-01-25T03:32:19;14.20;;;7.97;;
840;SDS011;406;48.566;13.450;2023-01-25T03:34:46;12.53;;;7.30;;
840;SDS011;406;48.566;13.450;2023-01-25T03:37:14;14.60;;;6.97;;
840;SDS011;406;48.566;13.450;2023-01-25T03:39:42;11.00;;;7.75;;
840;SDS011;406;48.566;13.450;2023-01-25T03:42:08;9.90;;;7.30;;
840;SDS011;406;48.566;13.450;2023-01-25T03:44:35;12.02;;;7.47;;
840;SDS011;406;48.566;13.450;2023-01-25T03:47:03;13.07;;;7.93;;
840;SDS011;406;48.566;13.450;2023-01-25T03:49:29;10.98;;;6.57;;
840;SDS011;406;48.566;13.450;2023-01-25T03:51:56;11.50;;;7.25;;
840;SDS011;406;48.566;13.450;2023-01-25T03:54:32;11.90;;;6.78;;
840;SDS011;406;48.566;13.450;2023-01-25T03:56:58;10.07;;;6.70;;
840;SDS011;406;48.566;13.450;2023-01-25T03:59:27;12.35;;;6.22;;
840;SDS011;406;48.566;13.450;2023-01-25T04:01:54;9.68;;;6.03;;
840;SDS011;406;48.566;13.450;2023-01-25T04:04:21;10.97;;;7.30;;
840;SDS011;406;48.566;13.450;2023-01-25T04:06:48;11.60;;;7.27;;
840;SDS011;406;48.566;13.450;2023-01-25T04:09:16;11.13;;;7.30;;
840;SDS011;406;48.566;13.450;2023-01-25T04:11:50;12.77;;;7.35;;
840;SDS011;406;48.566;13.450;2023-01-25T04:14:18;14.17;;;8.77;;
840;SDS011;406;48.566;13.450;2023-01-25T04:17:03;11.48;;;7.32;;
840;SDS011;406;48.566;13.450;2023-01-25T04:19:37;11.38;;;6.82;;
840;SDS011;406;48.566;13.450;2023-01-25T04:22:07;8.80;;;7.35;;
840;SDS011;406;48.566;13.450;2023-01-25T04:24:36;10.95;;;7.43;;
840;SDS011;406;48.566;13.450;2023-01-25T04:27:03;12.57;;;7.60;;
840;SDS011;406;48.566;13.450;2023-01-25T04:29:35;10.32;;;7.80;;
840;SDS011;406;48.566;13.450;2023-01-25T04:32:10;8.80;;;6.43;;
840;SDS011;406;48.566;13.450;2023-01-25T04:34:37;10.27;;;7.45;;
840;SDS011;406;48.566;13.450;2023-01-25T04:37:08;9.43;;;7.20;;
840;SDS011;406;48.566;13.450;2023-01-25T04:39:43;8.10;;;6.43;;
840;SDS011;406;48.566;13.450;2023-01-25T04:42:10;11.52;;;7.40;;
840;SDS011;406;48.566;13.450;2023-01-25T04:44:36;11.82;;;6.47;;
840;SDS011;406;48.566;13.450;2023-01-25T04:47:03;10.87;;;7.47;;
840;SDS011;406;48.566;13.450;2023-01-25T04:49:30;9.98;;;6.88;;
840;SDS011;406;48.566;13.450;2023-01-25T04:51:56;12.30;;;8.43;;
840;SDS011;406;48.566;13.450;2023-01-25T04:54:23;16.30;;;7.88;;
840;SDS011;406;48.566;13.450;2023-01-25T04:56:49;10.50;;;7.00;;
840;SDS011;406;48.566;13.450;2023-01-25T04:59:16;9.20;;;7.03;;
840;SDS011;406;48.566;13.450;2023-01-25T05:01:42;12.13;;;6.83;;
840;SDS011;406;48.566;13.450;2023-01-25T05:04:09;12.80;;;8.25;;
840;SDS011;406;48.566;13.450;2023-01-25T05:06:39;14.17;;;7.77;;
840;SDS011;406;48.566;13.450;2023-01-25T05:09:05;14.00;;;9.20;;
840;SDS011;406;48.566;13.450;2023-01-25T05:11:33;13.73;;;8.57;;
840;SDS011;406;48.566;13.450;2023-01-25T05:14:06;13.68;;;8.32;;
840;SDS011;406;48.566;13.450;2023-01-25T05:16:33;13.65;;;7.82;;
840;SDS011;406;48.566;13.450;2023-01-25T05:19:00;16.73;;;9.10;;
840;SDS011;406;48.566;13.450;2023-01-25T05:21:43;15.15;;;9.55;;
840;SDS011;406;48.566;13.450;2023-01-25T05:24:36;11.00;;;8.02;;
840;SDS011;406;48.566;13.450;2023-01-25T05:27:08;14.02;;;8.85;;
840;SDS011;406;48.566;13.450;2023-01-25T05:29:58;13.60;;;9.57;;
840;SDS011;406;48.566;13.450;2023-01-25T05:32:44;14.65;;;8.77;;
840;SDS011;406;48.566;13.450;2023-01-25T05:35:12;15.80;;;9.20;;
840;SDS011;406;48.566;13.450;2023-01-25T05:37:38;11.27;;;8.05;;
840;SDS011;406;48.566;13.450;2023-01-25T05:40:09;11.05;;;8.00;;
840;SDS011;406;48.566;13.450;2023-01-25T05:42:37;13.95;;;7.70;;
840;SDS011;406;48.566;13.450;2023-01-25T05:45:09;16.20;;;8.55;;
840;SDS011;406;48.566;13.450;2023-01-25T05:47:38;12.25;;;8.25;;
840;SDS011;406;48.566;13.450;2023-01-25T05:50:05;12.82;;;8.32;;
840;SDS011;406;48.566;13.450;2023-01-25T05:52:48;12.32;;;8.68;;
840;SDS011;406;48.566;13.450;2023-01-25T05:55:15;12.50;;;8.73;;
840;SDS011;406;48.566;13.450;2023-01-25T05:57:42;15.85;;;9.63;;
840;SDS011;406;48.566;13.450;2023-01-25T06:00:09;14.38;;;9.73;;
840;SDS011;406;48.566;13.450;2023-01-25T06:02:39;14.57;;;9.98;;
840;SDS011;406;48.566;13.450;2023-01-25T06:05:08;11.77;;;7.20;;
840;SDS011;406;48.566;13.450;2023-01-25T06:07:35;13.02;;;8.60;;
840;SDS011;406;48.566;13.450;2023-01-25T06:10:02;18.63;;;11.50;;
840;SDS011;406;48.566;13.450;2023-01-25T06:12:29;13.10;;;8.65;;
840;SDS011;406;48.566;13.450;2023-01-25T06:14:57;13.68;;;8.43;;
840;SDS011;406;48.566;13.450;2023-01-25T06:17:24;14.52;;;9.50;;
840;SDS011;406;48.566;13.450;2023-01-25T06:19:57;15.15;;;8.30;;
840;SDS011;406;48.566;13.450;2023-01-25T06:22:41;14.40;;;8.50;;
840;SDS011;406;48.566;13.450;2023-01-25T06:25:10;14.43;;;9.77;;
840;SDS011;406;48.566;13.450;2023-01-25T06:27:37;14.38;;;9.75;;
840;SDS011;406;48.566;13.450;2023-01-25T06:30:03;13.85;;;9.68;;
840;SDS011;406;48.566;13.450;2023-01-25T06:32:31;12.55;;;8.68;;
840;SDS011;406;48.566;13.450;2023-01-25T06:34:58;17.55;;;9.55;;
840;SDS011;406;48.566;13.450;2023-01-25T06:37:24;16.60;;;9.15;;
840;SDS011;406;48.566;13.450;2023-01-25T06:39:51;12.77;;;7.53;;
840;SDS011;406;48.566;13.450;2023-01-25T06:42:18;12.95;;;8.82;;
840;SDS011;406;48.566;13.450;2023-01-25T06:44:45;15.35;;;7.88;;
840;SDS011;406;48.566;13.450;2023-01-25T06:47:11;14.23;;;9.43;;
840;SDS011;406;48.566;13.450;2023-01-25T06:49:37;15.73;;;8.70;;
840;SDS011;406;48.566;13.450;2023-01-25T06:52:04;12.73;;;8.45;;
840;SDS011;406;48.566;13.450;2023-01-25T06:54:30;13.13;;;8.70;;
840;SDS011;406;48.566;13.450;2023-01-25T06:56:57;14.73;;;8.88;;
840;SDS011;406;48.566;13.450;2023-01-25T06:59:23;16.20;;;10.50;;
840;SDS011;406;48.566;13.450;2023-01-25T07:01:50;13.82;;;9.02;;
840;SDS011;406;48.566;13.450;2023-01-25T07:04:16;12.55;;;9.18;;
840;SDS011;406;48.566;13.450;2023-01-25T07:06:43;11.45;;;7.75;;
840;SDS011;406;48.566;13.450;2023-01-25T07:09:11;11.02;;;8.90;;
840;SDS011;406;48.566;13.450;2023-01-25T07:11:38;12.88;;;8.65;;
840;SDS011;406;48.566;13.450;2023-01-25T07:14:05;13.27;;;9.35;;
840;SDS011;406;48.566;13.450;2023-01-25T07:16:31;13.77;;;9.55;;
840;SDS011;406;48.566;13.450;2023-01-25T07:19:05;12.43;;;8.95;;
840;SDS011;406;48.566;13.450;2023-01-25T07:21:32;15.32;;;10.20;;
840;SDS011;406;48.566;13.450;2023-01-25T07:23:59;17.83;;;10.13;;
840;SDS011;406;48.566;13.450;2023-01-25T07:26:30;13.13;;;8.75;;
840;SDS011;406;48.566;13.450;2023-01-25T07:28:57;15.20;;;8.90;;
840;SDS011;406;48.566;13.450;2023-01-25T07:31:25;13.82;;;9.52;;
840;SDS011;406;48.566;13.450;2023-01-25T07:33:56;15.57;;;10.38;;
840;SDS011;406;48.566;13.450;2023-01-25T07:36:24;14.07;;;9.10;;
840;SDS011;406;48.566;13.450;2023-01-25T07:38:51;12.57;;;8.60;;
840;SDS011;406;48.566;13.450;2023-01-25T07:41:21;15.10;;;9.20;;
840;SDS011;406;48.566;13.450;2023-01-25T07:43:50;13.68;;;9.07;;
840;SDS011;406;48.566;13.450;2023-01-25T07:46:31;13.90;;;8.32;;
840;SDS011;406;48.566;13.450;2023-01-25T07:48:57;12.07;;;9.25;;
840;SDS011;406;48.566;13.450;2023-01-25T07:51:24;15.20;;;9.02;;
840;SDS011;406;48.566;13.450;2023-01-25T07:53:59;11.70;;;7.53;;
840;SDS011;406;48.566;13.450;2023-01-25T07:56:31;13.55;;;8.32;;
840;SDS011;406;48.566;13.450;2023-01-25T07:58:58;16.00;;;10.68;;
840;SDS011;406;48.566;13.450;2023-01-25T08:01:27;16.25;;;9.13;;
840;SDS011;406;48.566;13.450;2023-01-25T08:03:56;16.45;;;9.18;;
840;SDS011;406;48.566;13.450;2023-01-25T08:06:27;17.48;;;10.50;;
840;SDS011;406;48.566;13.450;2023-01-25T08:09:09;22.90;;;10.40;;
840;SDS011;406;48.566;13.450;2023-01-25T08:11:38;16.20;;;10.57;;
840;SDS011;406;48.566;13.450;2023-01-25T08:14:04;13.27;;;8.95;;
840;SDS011;406;48.566;13.450;2023-01-25T08:16:31;13.88;;;8.32;;
840;SDS011;406;48.566;13.450;2023-01-25T08:18:58;18.13;;;10.05;;
840;SDS011;406;48.566;13.450;2023-01-25T08:21:26;16.35;;;10.55;;
840;SDS011;406;48.566;13.450;2023-01-25T08:23:56;16.90;;;10.45;;
840;SDS011;406;48.566;13.450;2023-01-25T08:26:24;14.40;;;10.48;;
840;SDS011;406;48.566;13.450;2023-01-25T08:28:51;15.43;;;9.68;;
840;SDS011;406;48.566;13.450;2023-01-25T08:31:23;13.98;;;8.88;;
840;SDS011;406;48.566;13.450;2023-01-25T08:33:51;14.98;;;10.27;;
840;SDS011;406;48.566;13.450;2023-01-25T08:36:18;17.60;;;9.80;;
840;SDS011;406;48.566;13.450;2023-01-25T08:38:45;14.75;;;9.50;;
840;SDS011;406;48.566;13.450;2023-01-25T08:41:16;16.23;;;9.40;;
840;SDS011;406;48.566;13.450;2023-01-25T08:43:44;17.63;;;11.23;;
840;SDS011;406;48.566;13.450;2023-01-25T08:46:11;15.67;;;10.53;;
840;SDS011;406;48.566;13.450;2023-01-25T08:48:39;15.95;;;8.20;;
840;SDS011;406;48.566;13.450;2023-01-25T08:51:15;19.45;;;10.10;;
840;SDS011;406;48.566;13.450;2023-01-25T08:53:42;12.00;;;8.23;;
840;SDS011;406;48.566;13.450;2023-01-25T08:56:09;13.60;;;7.93;;
840;SDS011;406;48.566;13.450;2023-01-25T08:58:38;14.40;;;9.60;;
840;SDS011;406;48.566;13.450;2023-01-25T09:01:07;17.00;;;9.73;;
840;SDS011;406;48.566;13.450;2023-01-25T09:03:35;17.40;;;9.40;;
840;SDS011;406;48.566;13.450;2023-01-25T09:06:03;19.35;;;10.95;;
840;SDS011;406;48.566;13.450;2023-01-25T09:08:30;15.05;;;9.50;;
840;SDS011;406;48.566;13.450;2023-01-25T09:11:00;14.13;;;8.32;;
840;SDS011;406;48.566;13.450;2023-01-25T09:13:28;18.30;;;10.00;;
840;SDS011;406;48.566;13.450;2023-01-25T09:16:04;19.02;;;9.57;;
840;SDS011;406;48.566;13.450;2023-01-25T09:18:33;16.30;;;10.40;;
840;SDS011;406;48.566;13.450;2023-01-25T09:21:11;13.50;;;9.13;;
840;SDS011;406;48.566;13.450;2023-01-25T09:23:38;16.37;;;10.40;;
840;SDS011;406;48.566;13.450;2023-01-25T09:26:16;13.55;;;9.15;;
840;SDS011;406;48.566;13.450;2023-01-25T09:28:47;14.43;;;10.32;;
840;SDS011;406;48.566;13.450;2023-01-25T09:31:15;13.32;;;9.82;;
840;SDS011;406;48.566;13.450;2023-01-25T09:34:09;10.95;;;8.07;;
840;SDS011;406;48.566;13.450;2023-01-25T09:36:36;13.23;;;7.78;;
840;SDS011;406;48.566;13.450;2023-01-25T09:39:03;15.10;;;8.43;;
840;SDS011;406;48.566;13.450;2023-01-25T09:55:14;12.55;;;9.00;;
840;SDS011;406;48.566;13.450;2023-01-25T09:57:43;11.32;;;9.70;;
840;SDS011;406;48.566;13.450;2023-01-25T10:00:18;14.50;;;9.55;;
840;SDS011;406;48.566;13.450;2023-01-25T10:02:48;16.33;;;10.18;;
840;SDS011;406;48.566;13.450;2023-01-25T10:05:25;13.73;;;9.18;;
840;SDS011;406;48.566;13.450;2023-01-25T10:08:02;14.43;;;9.75;;
840;SDS011;406;48.566;13.450;2023-01-25T10:10:35;12.15;;;7.60;;
840;SDS011;406;48.566;13.450;2023-01-25T10:13:03;17.80;;;9.30;;
840;SDS011;406;48.566;13.450;2023-01-25T10:15:38;17.30;;;9.98;;
840;SDS011;406;48.566;13.450;2023-01-25T10:18:24;19.27;;;9.95;;
840;SDS011;406;48.566;13.450;2023-01-25T10:26:11;13.30;;;8.85;;
840;SDS011;406;48.566;13.450;2023-01-25T10:29:01;16.42;;;10.02;;
840;SDS011;406;48.566;13.450;2023-01-25T10:31:39;16.88;;;10.30;;
840;SDS011;406;48.566;13.450;2023-01-25T10:34:31;13.43;;;9.73;;
840;SDS011;406;48.566;13.450;2023-01-25T10:37:09;15.00;;;9.90;;
840;SDS011;406;48.566;13.450;2023-01-25T10:39:40;14.95;;;8.57;;
840;SDS011;406;48.566;13.450;2023-01-25T10:42:15;11.45;;;7.53;;
840;SDS011;406;48.566;13.450;2023-01-25T10:44:42;15.35;;;9.52;;
840;SDS011;406;48.566;13.450;2023-01-25T10:49:52;10.90;;;8.55;;
840;SDS011;406;48.566;13.450;2023-01-25T10:52:23;14.85;;;9.57;;
840;SDS011;406;48.566;13.450;2023-01-25T10:55:05;16.52;;;9.50;;
840;SDS011;406;48.566;13.450;2023-01-25T10:57:49;13.60;;;9.48;;
840;SDS011;406;48.566;13.450;2023-01-25T11:02:58;13.75;;;11.10;;
840;SDS011;406;48.566;13.450;2023-01-25T11:08:13;17.93;;;9.90;;
840;SDS011;406;48.566;13.450;2023-01-25T11:10:47;17.90;;;9.37;;
840;SDS011;406;48.566;13.450;2023-01-25T11:15:44;16.47;;;8.87;;
840;SDS011;406;48.566;13.450;2023-01-25T11:18:15;15.57;;;9.27;;
840;SDS011;406;48.566;13.450;2023-01-25T11:20:44;15.65;;;10.30;;
840;SDS011;406;48.566;13.450;2023-01-25T11:23:21;15.63;;;11.02;;
840;SDS011;406;48.566;13.450;2023-01-25T11:25:50;16.73;;;11.02;;
840;SDS011;406;48.566;13.450;2023-01-25T11:30:48;15.63;;;10.20;;
840;SDS011;406;48.566;13.450;2023-01-25T11:33:16;15.80;;;10.07;;
840;SDS011;406;48.566;13.450;2023-01-25T11:38:32;15.27;;;8.90;;
840;SDS011;406;48.566;13.450;2023-01-25T11:41:09;16.58;;;8.60;;
840;SDS011;406;48.566;13.450;2023-01-25T11:46:19;16.90;;;10.95;;
840;SDS011;406;48.566;13.450;2023-01-25T12:08:19;11.77;;;7.80;;
840;SDS011;406;48.566;13.450;2023-01-25T12:11:14;18.27;;;10.70;;
840;SDS011;406;48.566;13.450;2023-01-25T12:13:56;15.23;;;9.90;;
840;SDS011;406;48.566;13.450;2023-01-25T12:22:12;14.05;;;8.20;;
840;SDS011;406;48.566;13.450;2023-01-25T12:24:50;14.00;;;10.10;;
840;SDS011;406;48.566;13.450;2023-01-25T12:29:53;17.97;;;11.90;;
840;SDS011;406;48.566;13.450;2023-01-25T12:32:26;15.55;;;10.18;;
840;SDS011;406;48.566;13.450;2023-01-25T12:37:57;15.13;;;11.18;;
840;SDS011;406;48.566;13.450;2023-01-25T12:40:49;12.77;;;8.63;;
840;SDS011;406;48.566;13.450;2023-01-25T12:43:30;14.90;;;9.50;;
840;SDS011;406;48.566;13.450;2023-01-25T12:46:09;16.23;;;10.37;;
840;SDS011;406;48.566;13.450;2023-01-25T12:48:40;13.75;;;9.32;;
840;SDS011;406;48.566;13.450;2023-01-25T12:51:11;13.13;;;9.55;;
840;SDS011;406;48.566;13.450;2023-01-25T12:53:38;15.73;;;10.75;;
840;SDS011;406;48.566;13.450;2023-01-25T12:58:59;14.70;;;8.82;;
840;SDS011;406;48.566;13.450;2023-01-25T13:01:44;15.55;;;9.95;;
840;SDS011;406;48.566;13.450;2023-01-25T13:07:16;17.98;;;11.90;;
840;SDS011;406;48.566;13.450;2023-01-25T13:09:58;14.02;;;8.95;;
840;SDS011;406;48.566;13.450;2023-01-25T13:12:57;17.83;;;10.05;;
840;SDS011;406;48.566;13.450;2023-01-25T13:15:42;14.77;;;10.00;;
840;SDS011;406;48.566;13.450;2023-01-25T13:21:08;15.68;;;10.48;;
840;SDS011;406;48.566;13.450;2023-01-25T13:23:40;15.63;;;10.15;;
840;SDS011;406;48.566;13.450;2023-01-25T13:28:51;15.00;;;9.20;;
840;SDS011;406;48.566;13.450;2023-01-25T13:37:14;13.45;;;9.57;;
840;SDS011;406;48.566;13.450;2023-01-25T13:39:48;14.68;;;9.18;;
840;SDS011;406;48.566;13.450;2023-01-25T13:42:37;14.17;;;9.60;;
840;SDS011;406;48.566;13.450;2023-01-25T13:47:35;16.48;;;10.52;;
840;SDS011;406;48.566;13.450;2023-01-25T13:50:16;16.60;;;9.93;;
840;SDS011;406;48.566;13.450;2023-01-25T13:52:56;16.55;;;12.38;;
840;SDS011;406;48.566;13.450;2023-01-25T13:55:24;15.02;;;10.23;;
840;SDS011;406;48.566;13.450;2023-01-25T13:57:51;14.55;;;9.27;;
840;SDS011;406;48.566;13.450;2023-01-25T14:00:19;13.38;;;8.73;;
840;SDS011;406;48.566;13.450;2023-01-25T14:02:48;14.88;;;9.75;;
840;SDS011;406;48.566;13.450;2023-01-25T14:05:20;16.60;;;10.02;;
840;SDS011;406;48.566;13.450;2023-01-25T14:07:48;15.33;;;9.70;;
840;SDS011;406;48.566;13.450;2023-01-25T14:10:17;14.52;;;9.95;;
840;SDS011;406;48.566;13.450;2023-01-25T14:12:49;16.30;;;10.95;;
840;SDS011;406;48.566;13.450;2023-01-25T14:15:21;17.63;;;10.85;;
840;SDS011;406;48.566;13.450;2023-01-25T14:18:15;14.63;;;9.23;;
840;SDS011;406;48.566;13.450;2023-01-25T14:20:45;16.13;;;10.48;;
840;SDS011;406;48.566;13.450;2023-01-25T14:25:51;14.40;;;8.95;;
840;SDS011;406;48.566;13.450;2023-01-25T14:28:19;14.73;;;10.30;;
840;SDS011;406;48.566;13.450;2023-01-25T14:30:49;14.60;;;9.80;;
840;SDS011;406;48.566;13.450;2023-01-25T14:33:22;16.85;;;12.20;;
840;SDS011;406;48.566;13.450;2023-01-25T14:35:54;16.67;;;9.65;;
840;SDS011;406;48.566;13.450;2023-01-25T14:38:41;15.20;;;10.02;;
840;SDS011;406;48.566;13.450;2023-01-25T14:43:42;16.65;;;10.70;;
840;SDS011;406;48.566;13.450;2023-01-25T14:46:21;15.00;;;9.68;;
840;SDS011;406;48.566;13.450;2023-01-25T14:48:48;13.25;;;8.85;;
840;SDS011;406;48.566;13.450;2023-01-25T14:51:16;12.10;;;8.00;;
840;SDS011;406;48.566;13.450;2023-01-25T14:53:47;14.27;;;9.48;;
840;SDS011;406;48.566;13.450;2023-01-25T14:56:28;17.13;;;9.48;;
840;SDS011;406;48.566;13.450;2023-01-25T14:59:02;14.15;;;8.68;;
840;SDS011;406;48.566;13.450;2023-01-25T15:01:37;14.93;;;9.70;;
840;SDS011;406;48.566;13.450;2023-01-25T15:04:08;13.77;;;9.52;;
840;SDS011;406;48.566;13.450;2023-01-25T15:06:43;15.93;;;9.68;;
840;SDS011;406;48.566;13.450;2023-01-25T15:09:33;12.40;;;9.52;;
840;SDS011;406;48.566;13.450;2023-01-25T15:14:52;12.82;;;9.25;;
840;SDS011;406;48.566;13.450;2023-01-25T15:17:36;18.48;;;10.52;;
840;SDS011;406;48.566;13.450;2023-01-25T15:20:32;15.73;;;10.40;;
840;SDS011;406;48.566;13.450;2023-01-25T15:23:07;15.32;;;9.63;;
840;SDS011;406;48.566;13.450;2023-01-25T15:25:48;14.65;;;9.35;;
840;SDS011;406;48.566;13.450;2023-01-25T15:28:15;17.88;;;10.13;;
840;SDS011;406;48.566;13.450;2023-01-25T15:30:42;14.57;;;9.90;;
840;SDS011;406;48.566;13.450;2023-01-25T15:33:13;14.18;;;9.63;;
840;SDS011;406;48.566;13.450;2023-01-25T15:35:43;22.85;;;10.77;;
840;SDS011;406;48.566;13.450;2023-01-25T15:38:10;15.50;;;9.45;;
840;SDS011;406;48.566;13.450;2023-01-25T15:40:38;14.80;;;9.10;;
840;SDS011;406;48.566;13.450;2023-01-25T15:43:04;15.20;;;10.43;;
840;SDS011;406;48.566;13.450;2023-01-25T15:45:31;14.10;;;9.27;;
840;SDS011;406;48.566;13.450;2023-01-25T15:47:57;20.10;;;11.18;;
840;SDS011;406;48.566;13.450;2023-01-25T15:50:24;16.30;;;10.15;;
840;SDS011;406;48.566;13.450;2023-01-25T15:52:51;15.27;;;10.20;;
840;SDS011;406;48.566;13.450;2023-01-25T15:55:18;17.17;;;10.38;;
840;SDS011;406;48.566;13.450;2023-01-25T15:57:44;13.23;;;10.25;;
840;SDS011;406;48.566;13.450;2023-01-25T16:00:16;12.77;;;8.87;;
840;SDS011;406;48.566;13.450;2023-01-25T16:02:44;21.10;;;11.05;;
840;SDS011;406;48.566;13.450;2023-01-25T16:05:10;16.70;;;9.88;;
840;SDS011;406;48.566;13.450;2023-01-25T16:07:37;18.10;;;11.63;;
840;SDS011;406;48.566;13.450;2023-01-25T16:10:05;16.80;;;10.65;;
840;SDS011;406;48.566;13.450;2023-01-25T16:12:34;18.40;;;11.48;;
840;SDS011;406;48.566;13.450;2023-01-25T16:15:01;18.80;;;11.65;;
840;SDS011;406;48.566;13.450;2023-01-25T16:17:28;17.80;;;12.48;;
840;SDS011;406;48.566;13.450;2023-01-25T16:19:55;17.60;;;10.45;;
840;SDS011;406;48.566;13.450;2023-01-25T16:22:22;13.27;;;8.65;;
840;SDS011;406;48.566;13.450;2023-01-25T16:24:48;19.20;;;12.48;;
840;SDS011;406;48.566;13.450;2023-01-25T16:27:16;18.83;;;10.80;;
840;SDS011;406;48.566;13.450;2023-01-25T16:29:47;18.30;;;11.07;;
840;SDS011;406;48.566;13.450;2023-01-25T16:32:14;18.10;;;10.85;;
840;SDS011;406;48.566;13.450;2023-01-25T16:34:40;19.73;;;11.05;;
840;SDS011;406;48.566;13.450;2023-01-25T16:37:10;22.65;;;13.65;;
840;SDS011;406;48.566;13.450;2023-01-25T16:39:39;20.35;;;11.32;;
840;SDS011;406;48.566;13.450;2023-01-25T16:42:07;15.93;;;10.63;;
840;SDS011;406;48.566;13.450;2023-01-25T16:44:34;14.93;;;9.82;;
840;SDS011;406;48.566;13.450;2023-01-25T16:47:00;17.58;;;11.40;;
840;SDS011;406;48.566;13.450;2023-01-25T16:49:28;19.00;;;11.52;;
840;SDS011;406;48.566;13.450;2023-01-25T16:51:56;15.23;;;11.43;;
840;SDS011;406;48.566;13.450;2023-01-25T16:54:23;17.92;;;11.88;;
840;SDS011;406;48.566;13.450;2023-01-25T16:56:51;18.48;;;12.95;;
840;SDS011;406;48.566;13.450;2023-01-25T16:59:19;16.00;;;9.77;;
840;SDS011;406;48.566;13.450;2023-01-25T17:01:47;17.60;;;11.45;;
840;SDS011;406;48.566;13.450;2023-01-25T17:04:13;18.70;;;10.82;;
840;SDS011;406;48.566;13.450;2023-01-25T17:06:41;17.40;;;10.87;;
840;SDS011;406;48.566;13.450;2023-01-25T17:09:10;17.48;;;10.52;;
840;SDS011;406;48.566;13.450;2023-01-25T17:11:48;16.13;;;10.25;;
840;SDS011;406;48.566;13.450;2023-01-25T17:14:16;19.20;;;11.85;;
840;SDS011;406;48.566;13.450;2023-01-25T17:16:43;18.60;;;11.95;;
840;SDS011;406;48.566;13.450;2023-01-25T17:19:13;16.00;;;11.75;;
840;SDS011;406;48.566;13.450;2023-01-25T17:21:41;19.48;;;11.60;;